createdAt,value
2019-02-18T00:00:08.104Z,2.23
2019-02-18T00:01:13.394Z,2.25
2019-02-18T00:02:17.115Z,2.29
2019-02-18T00:03:20.761Z,2.33
2019-02-18T00:04:24.399Z,2.25
2019-02-18T00:05:28.042Z,2.20
2019-02-18T00:06:31.675Z,2.18
2019-02-18T00:07:35.344Z,2.05
2019-02-18T00:08:38.985Z,1.85
2019-02-18T00:09:42.707Z,1.74
2019-02-18T00:10:46.358Z,1.77
2019-02-18T00:11:50.278Z,1.86
2019-02-18T00:12:54.323Z,1.93
2019-02-18T00:13:57.966Z,1.98
2019-02-18T00:15:01.610Z,1.87
2019-02-18T00:16:05.500Z,1.65
2019-02-18T00:17:09.141Z,1.55
2019-02-18T00:18:13.151Z,1.52
2019-02-18T00:19:16.786Z,1.54
2019-02-18T00:20:20.419Z,1.45
2019-02-18T00:21:24.060Z,1.51
2019-02-18T00:22:27.626Z,1.60
2019-02-18T00:23:31.306Z,1.67
2019-02-18T00:24:34.928Z,1.71
2019-02-18T00:25:38.568Z,1.66
2019-02-18T00:26:42.214Z,1.65
2019-02-18T00:27:45.853Z,1.58
2019-02-18T00:28:49.538Z,1.58
2019-02-18T00:29:53.164Z,1.56
2019-02-18T00:30:56.804Z,1.54
2019-02-18T00:32:00.442Z,1.60
2019-02-18T00:33:04.151Z,1.69
2019-02-18T00:34:07.817Z,1.75
2019-02-18T00:35:11.463Z,1.75
2019-02-18T00:36:15.099Z,1.74
2019-02-18T00:37:24.511Z,1.74
2019-02-18T00:38:24.122Z,1.74
2019-02-18T00:39:27.792Z,1.64
2019-02-18T00:40:31.834Z,1.54
2019-02-18T00:41:35.489Z,1.48
2019-02-18T00:42:39.129Z,1.56
2019-02-18T00:43:42.783Z,1.63
2019-02-18T00:44:46.442Z,1.69
2019-02-18T00:45:50.013Z,1.62
2019-02-18T00:46:53.729Z,1.50
2019-02-18T00:47:57.428Z,1.48
2019-02-18T00:49:01.055Z,1.48
2019-02-18T00:50:06.444Z,1.44
2019-02-18T00:51:10.465Z,1.41
2019-02-18T00:52:14.101Z,1.50
2019-02-18T00:53:17.740Z,1.54
2019-02-18T00:54:21.391Z,1.58
2019-02-18T00:55:25.077Z,1.60
2019-02-18T00:56:28.709Z,1.55
2019-02-18T00:57:32.344Z,1.53
2019-02-18T00:58:35.978Z,1.47
2019-02-18T00:59:39.565Z,1.39
2019-02-18T01:00:43.234Z,1.35
2019-02-18T01:01:46.873Z,1.32
2019-02-18T01:02:50.517Z,1.39
2019-02-18T01:03:54.155Z,1.47
2019-02-18T01:04:57.810Z,1.57
2019-02-18T01:06:01.480Z,1.54
2019-02-18T01:07:05.119Z,1.47
2019-02-18T01:08:09.045Z,1.45
2019-02-18T01:09:12.691Z,1.38
2019-02-18T01:10:16.403Z,1.34
2019-02-18T01:11:20.077Z,1.13
2019-02-18T01:12:23.715Z,1.01
2019-02-18T01:13:27.350Z,1.10
2019-02-18T01:14:30.984Z,1.19
2019-02-18T01:15:34.623Z,1.28
2019-02-18T01:16:38.388Z,1.29
2019-02-18T01:17:42.020Z,1.28
2019-02-18T01:18:45.981Z,1.21
2019-02-18T01:19:49.624Z,1.16
2019-02-18T01:20:53.188Z,1.15
2019-02-18T01:21:56.854Z,1.18
2019-02-18T01:23:00.500Z,1.17
2019-02-18T01:24:04.137Z,1.23
2019-02-18T01:25:10.171Z,1.29
2019-02-18T01:26:13.804Z,1.23
2019-02-18T01:27:17.406Z,1.11
2019-02-18T01:28:21.041Z,1.05
2019-02-18T01:29:24.680Z,1.04
2019-02-18T01:30:28.357Z,1.05
2019-02-18T01:31:31.892Z,1.07
2019-02-18T01:32:35.491Z,1.04
2019-02-18T01:33:39.420Z,1.07
2019-02-18T01:34:43.059Z,1.12
2019-02-18T01:35:47.018Z,1.11
2019-02-18T01:36:50.659Z,1.04
2019-02-18T01:37:54.325Z,1.01
2019-02-18T01:38:57.960Z,1.05
2019-02-18T01:40:01.596Z,1.09
2019-02-18T01:41:05.235Z,1.11
2019-02-18T01:42:08.871Z,1.09
2019-02-18T01:43:15.225Z,1.02
2019-02-18T01:44:18.936Z,1.07
2019-02-18T01:45:22.564Z,1.14
2019-02-18T01:46:26.226Z,1.19
2019-02-18T01:47:29.873Z,1.14
2019-02-18T01:48:33.570Z,1.13
2019-02-18T01:49:37.201Z,1.06
2019-02-18T01:50:40.910Z,0.96
2019-02-18T01:51:44.554Z,0.90
2019-02-18T01:52:48.188Z,0.85
2019-02-18T01:53:51.794Z,0.84
2019-02-18T01:54:55.427Z,0.94
2019-02-18T01:55:59.071Z,1.02
2019-02-18T01:57:02.715Z,1.05
2019-02-18T01:58:06.363Z,0.99
2019-02-18T01:59:10.003Z,0.94
2019-02-18T02:00:16.013Z,0.88
2019-02-18T02:01:19.652Z,0.81
2019-02-18T02:02:23.646Z,0.78
2019-02-18T02:03:27.386Z,0.76
2019-02-18T02:04:31.049Z,0.74
2019-02-18T02:05:34.685Z,0.83
2019-02-18T02:06:38.320Z,0.93
2019-02-18T02:07:41.964Z,0.90
2019-02-18T02:08:45.601Z,0.87
2019-02-18T02:09:49.337Z,0.87
2019-02-18T02:10:52.968Z,0.74
2019-02-18T02:11:56.609Z,0.71
2019-02-18T02:13:25.129Z,0.70
2019-02-18T02:14:29.153Z,0.63
2019-02-18T02:15:33.365Z,0.61
2019-02-18T02:16:36.996Z,0.68
2019-02-18T02:17:40.556Z,0.78
2019-02-18T02:18:44.191Z,0.78
2019-02-18T02:19:48.131Z,0.70
2019-02-18T02:20:51.764Z,0.63
2019-02-18T02:21:55.334Z,0.55
2019-02-18T02:22:58.923Z,0.49
2019-02-18T02:24:02.585Z,0.43
2019-02-18T02:25:06.638Z,0.34
2019-02-18T02:26:10.280Z,0.39
2019-02-18T02:27:13.923Z,0.50
2019-02-18T02:28:17.627Z,0.58
2019-02-18T02:29:21.276Z,0.66
2019-02-18T02:30:25.029Z,0.64
2019-02-18T02:31:28.735Z,0.59
2019-02-18T02:32:32.375Z,0.36
2019-02-18T02:33:35.938Z,0.27
2019-02-18T02:34:39.570Z,0.30
2019-02-18T02:35:43.235Z,0.35
2019-02-18T02:36:46.865Z,0.35
2019-02-18T02:37:50.510Z,0.42
2019-02-18T02:38:54.232Z,0.51
2019-02-18T02:39:57.864Z,0.47
2019-02-18T02:41:01.527Z,0.36
2019-02-18T02:42:05.172Z,0.35
2019-02-18T02:43:08.800Z,0.28
2019-02-18T02:44:12.363Z,0.24
2019-02-18T02:45:16.005Z,0.11
2019-02-18T02:46:19.662Z,0.11
2019-02-18T02:47:23.302Z,0.12
2019-02-18T02:48:29.278Z,0.11
2019-02-18T02:49:32.912Z,0.25
2019-02-18T02:50:36.564Z,0.34
2019-02-18T02:51:40.191Z,0.40
2019-02-18T02:52:43.833Z,0.39
2019-02-18T02:53:47.465Z,0.32
2019-02-18T02:54:51.060Z,0.27
2019-02-18T02:55:54.699Z,0.29
2019-02-18T02:56:58.288Z,0.20
2019-02-18T02:58:01.926Z,0.07
2019-02-18T02:59:05.568Z,0.05
2019-02-18T03:00:12.005Z,0.08
2019-02-18T03:01:15.645Z,0.19
2019-02-18T03:02:19.316Z,0.24
2019-02-18T03:03:22.960Z,0.24
2019-02-18T03:04:26.591Z,0.21
2019-02-18T03:05:30.227Z,0.12
2019-02-18T03:06:33.889Z,0.12
2019-02-18T03:07:37.563Z,0.09
2019-02-18T03:08:41.191Z,0.11
2019-02-18T03:09:44.827Z,0.11
2019-02-18T03:10:48.538Z,0.11
2019-02-18T03:11:52.175Z,0.19
2019-02-18T03:12:55.939Z,0.26
2019-02-18T03:13:59.583Z,0.26
2019-02-18T03:15:03.712Z,0.22
2019-02-18T03:16:07.363Z,0.21
2019-02-18T03:17:11.008Z,0.22
2019-02-18T03:18:14.726Z,0.18
2019-02-18T03:19:18.396Z,0.14
2019-02-18T03:20:21.961Z,0.05
2019-02-18T03:21:25.612Z,0.08
2019-02-18T03:22:29.248Z,0.18
2019-02-18T03:23:32.980Z,0.26
2019-02-18T03:24:36.538Z,0.26
2019-02-18T03:25:40.173Z,0.19
2019-02-18T03:26:43.811Z,0.16
2019-02-18T03:27:48.344Z,0.14
2019-02-18T03:29:06.885Z,0.18
2019-02-18T03:30:39.130Z,0.16
2019-02-18T03:31:42.765Z,0.09
2019-02-18T03:32:46.419Z,0.02
2019-02-18T03:33:53.293Z,0.08
2019-02-18T03:34:56.960Z,0.15
2019-02-18T03:36:00.605Z,0.18
2019-02-18T03:37:04.245Z,0.07
2019-02-18T03:38:07.878Z,0.05
2019-02-18T03:39:11.547Z,0.07
2019-02-18T03:40:15.217Z,0.00
2019-02-18T03:41:18.863Z,0.00
2019-02-18T03:42:22.577Z,-0.02
2019-02-18T03:43:26.829Z,-0.03
2019-02-18T03:44:30.461Z,-0.04
2019-02-18T03:45:34.056Z,0.03
2019-02-18T03:46:37.688Z,0.11
2019-02-18T03:47:41.420Z,0.18
2019-02-18T03:48:44.981Z,0.08
2019-02-18T03:49:48.627Z,-0.18
2019-02-18T03:50:53.278Z,-0.35
2019-02-18T03:51:56.953Z,-0.51
2019-02-18T03:53:00.978Z,-0.54
2019-02-18T03:54:04.624Z,-0.60
2019-02-18T03:55:10.076Z,-0.70
2019-02-18T03:56:13.743Z,-0.71
2019-02-18T03:57:17.412Z,-0.55
2019-02-18T03:58:21.349Z,-0.40
2019-02-18T03:59:25.033Z,-0.31
2019-02-18T04:00:28.666Z,-0.38
2019-02-18T04:01:32.326Z,-0.51
2019-02-18T04:02:35.973Z,-0.56
2019-02-18T04:03:39.609Z,-0.50
2019-02-18T04:04:43.257Z,-0.48
2019-02-18T04:05:46.917Z,-0.59
2019-02-18T04:06:50.586Z,-0.67
2019-02-18T04:07:54.225Z,-0.62
2019-02-18T04:08:58.014Z,-0.64
2019-02-18T04:10:01.575Z,-0.58
2019-02-18T04:11:05.224Z,-0.47
2019-02-18T04:12:08.816Z,-0.38
2019-02-18T04:13:12.450Z,-0.47
2019-02-18T04:14:16.094Z,-0.42
2019-02-18T04:15:19.820Z,-0.44
2019-02-18T04:16:23.464Z,-0.53
2019-02-18T04:17:27.121Z,-0.63
2019-02-18T04:18:30.770Z,-0.72
2019-02-18T04:19:34.339Z,-0.70
2019-02-18T04:20:37.972Z,-0.73
2019-02-18T04:21:41.618Z,-0.66
2019-02-18T04:22:45.298Z,-0.55
2019-02-18T04:23:49.047Z,-0.45
2019-02-18T04:24:52.683Z,-0.51
2019-02-18T04:25:56.250Z,-0.64
2019-02-18T04:26:59.908Z,-0.63
2019-02-18T04:28:03.574Z,-0.60
2019-02-18T04:29:07.150Z,-0.62
2019-02-18T04:30:13.718Z,-0.68
2019-02-18T04:31:17.393Z,-0.76
2019-02-18T04:32:21.152Z,-0.72
2019-02-18T04:33:24.820Z,-0.71
2019-02-18T04:34:28.397Z,-0.64
2019-02-18T04:35:34.086Z,-0.54
2019-02-18T04:36:37.836Z,-0.47
2019-02-18T04:37:41.485Z,-0.56
2019-02-18T04:38:53.876Z,-0.57
2019-02-18T04:39:50.538Z,-0.57
2019-02-18T04:40:54.181Z,-0.58
2019-02-18T04:41:57.753Z,-0.57
2019-02-18T04:43:01.405Z,-0.63
2019-02-18T04:44:05.084Z,-0.74
2019-02-18T04:45:11.677Z,-0.76
2019-02-18T04:46:15.680Z,-0.72
2019-02-18T04:47:19.306Z,-0.60
2019-02-18T04:48:22.886Z,-0.53
2019-02-18T04:49:26.569Z,-0.58
2019-02-18T04:50:30.208Z,-0.64
2019-02-18T04:51:33.777Z,-0.72
2019-02-18T04:52:37.424Z,-0.74
2019-02-18T04:53:41.067Z,-0.76
2019-02-18T04:54:44.737Z,-0.77
2019-02-18T04:55:48.375Z,-0.79
2019-02-18T04:56:52.369Z,-0.79
2019-02-18T04:57:56.013Z,-0.73
2019-02-18T04:58:59.651Z,-0.63
2019-02-18T05:00:03.339Z,-0.57
2019-02-18T05:01:07.085Z,-0.63
2019-02-18T05:02:11.069Z,-0.62
2019-02-18T05:03:14.712Z,-0.65
2019-02-18T05:04:18.363Z,-0.73
2019-02-18T05:05:22.047Z,-0.76
2019-02-18T05:06:25.745Z,-0.82
2019-02-18T05:07:29.329Z,-0.84
2019-02-18T05:08:32.957Z,-0.85
2019-02-18T05:09:36.570Z,-0.87
2019-02-18T05:10:40.246Z,-0.86
2019-02-18T05:11:44.936Z,-0.77
2019-02-18T05:12:48.440Z,-0.69
2019-02-18T05:13:52.249Z,-0.64
2019-02-18T05:14:55.890Z,-0.72
2019-02-18T05:15:59.496Z,-0.92
2019-02-18T05:17:03.257Z,-1.08
2019-02-18T05:18:06.902Z,-1.20
2019-02-18T05:19:10.535Z,-1.22
2019-02-18T05:20:14.369Z,-1.17
2019-02-18T05:21:18.015Z,-1.24
2019-02-18T05:22:21.660Z,-1.21
2019-02-18T05:23:25.227Z,-1.09
2019-02-18T05:24:28.877Z,-1.06
2019-02-18T05:25:32.611Z,-0.98
2019-02-18T05:26:36.278Z,-1.00
2019-02-18T05:27:39.945Z,-0.98
2019-02-18T05:28:43.494Z,-0.97
2019-02-18T05:29:47.129Z,-0.93
2019-02-18T05:30:50.770Z,-0.86
2019-02-18T05:31:54.386Z,-0.72
2019-02-18T05:32:58.013Z,-0.68
2019-02-18T05:34:01.659Z,-0.60
2019-02-18T05:35:06.202Z,-0.55
2019-02-18T05:36:10.156Z,-0.63
2019-02-18T05:37:13.911Z,-0.70
2019-02-18T05:38:17.974Z,-0.70
2019-02-18T05:39:21.626Z,-0.79
2019-02-18T05:40:25.626Z,-0.86
2019-02-18T05:41:31.167Z,-0.87
2019-02-18T05:42:34.588Z,-0.89
2019-02-18T05:43:38.225Z,-0.96
2019-02-18T05:44:41.806Z,-0.97
2019-02-18T05:45:45.478Z,-0.99
2019-02-18T05:46:49.126Z,-0.96
2019-02-18T05:47:52.792Z,-0.99
2019-02-18T05:48:56.358Z,-1.07
2019-02-18T05:49:59.996Z,-1.07
2019-02-18T05:51:03.673Z,-1.07
2019-02-18T05:52:07.694Z,-1.10
2019-02-18T05:53:11.458Z,-1.04
2019-02-18T05:54:15.027Z,-0.94
2019-02-18T05:55:18.681Z,-0.81
2019-02-18T05:56:22.333Z,-0.73
2019-02-18T05:57:25.965Z,-0.80
2019-02-18T05:58:29.637Z,-0.81
2019-02-18T05:59:33.297Z,-0.92
2019-02-18T06:00:36.927Z,-1.08
2019-02-18T06:01:40.573Z,-1.19
2019-02-18T06:02:44.213Z,-1.26
2019-02-18T06:03:47.887Z,-1.21
2019-02-18T06:04:51.540Z,-1.14
2019-02-18T06:05:55.263Z,-1.09
2019-02-18T06:06:59.219Z,-1.12
2019-02-18T06:08:02.835Z,-1.14
2019-02-18T06:09:06.502Z,-1.13
2019-02-18T06:10:10.152Z,-1.14
2019-02-18T06:11:13.722Z,-1.08
2019-02-18T06:12:17.362Z,-1.02
2019-02-18T06:13:24.996Z,-0.92
2019-02-18T06:14:28.677Z,-0.95
2019-02-18T06:15:32.314Z,-1.03
2019-02-18T06:16:37.869Z,-1.05
2019-02-18T06:17:42.668Z,-1.04
2019-02-18T06:18:46.332Z,-1.06
2019-02-18T06:19:50.004Z,-1.05
2019-02-18T06:20:53.956Z,-1.08
2019-02-18T06:21:57.596Z,-1.09
2019-02-18T06:23:01.172Z,-1.08
2019-02-18T06:24:05.147Z,-1.02
2019-02-18T06:25:08.827Z,-0.95
2019-02-18T06:26:12.465Z,-0.95
2019-02-18T06:27:17.889Z,-1.05
2019-02-18T06:28:21.852Z,-1.06
2019-02-18T06:29:25.525Z,-1.04
2019-02-18T06:30:29.691Z,-1.00
2019-02-18T06:31:33.426Z,-1.00
2019-02-18T06:32:37.080Z,-0.98
2019-02-18T06:33:40.716Z,-1.01
2019-02-18T06:34:44.355Z,-1.03
2019-02-18T06:35:48.024Z,-1.02
2019-02-18T06:36:51.665Z,-1.01
2019-02-18T06:37:55.309Z,-0.95
2019-02-18T06:38:58.962Z,-0.88
2019-02-18T06:40:02.589Z,-0.79
2019-02-18T06:41:06.260Z,-0.69
2019-02-18T06:42:11.229Z,-0.69
2019-02-18T06:43:15.135Z,-0.68
2019-02-18T06:44:20.671Z,-0.62
2019-02-18T06:45:25.955Z,-0.54
2019-02-18T06:46:31.604Z,-0.50
2019-02-18T06:47:35.247Z,-0.40
2019-02-18T06:48:40.971Z,-0.33
2019-02-18T06:49:44.891Z,-0.25
2019-02-18T06:50:48.597Z,-0.21
2019-02-18T06:51:53.136Z,-0.11
2019-02-18T06:53:00.809Z,-0.11
2019-02-18T06:54:04.457Z,-0.02
2019-02-18T06:55:09.367Z,0.05
2019-02-18T06:56:13.077Z,0.10
2019-02-18T06:57:21.119Z,0.20
2019-02-18T06:58:26.399Z,0.37
2019-02-18T06:59:31.719Z,0.41
2019-02-18T07:00:42.413Z,0.44
2019-02-18T07:02:05.598Z,0.45
2019-02-18T07:03:24.193Z,0.46
2019-02-18T07:04:32.517Z,0.46
2019-02-18T07:05:40.407Z,0.55
2019-02-18T07:06:54.833Z,0.61
2019-02-18T07:08:00.110Z,0.83
2019-02-18T07:09:08.265Z,0.94
2019-02-18T07:10:22.376Z,0.92
2019-02-18T07:11:33.649Z,0.96
2019-02-18T07:12:38.935Z,1.05
2019-02-18T07:13:42.569Z,1.20
2019-02-18T07:14:46.253Z,1.35
2019-02-18T07:15:49.892Z,1.39
2019-02-18T07:16:53.539Z,1.37
2019-02-18T07:17:57.110Z,1.63
2019-02-18T07:19:01.067Z,1.76
2019-02-18T07:20:06.538Z,1.97
2019-02-18T07:21:10.222Z,2.14
2019-02-18T07:22:13.845Z,2.32
2019-02-18T07:23:18.077Z,2.45
2019-02-18T07:24:21.709Z,2.41
2019-02-18T07:25:26.618Z,2.34
2019-02-18T07:26:30.252Z,2.42
2019-02-18T07:27:33.946Z,2.39
2019-02-18T07:28:37.607Z,2.60
2019-02-18T07:29:41.259Z,2.86
2019-02-18T07:30:45.317Z,3.07
2019-02-18T07:31:50.707Z,3.18
2019-02-18T07:32:54.312Z,3.32
2019-02-18T07:33:57.950Z,3.53
2019-02-18T07:35:01.588Z,3.53
2019-02-18T07:36:05.280Z,3.74
2019-02-18T07:37:08.925Z,3.95
2019-02-18T07:38:13.720Z,4.05
2019-02-18T07:39:17.241Z,4.18
2019-02-18T07:40:20.892Z,4.29
2019-02-18T07:41:24.565Z,4.46
2019-02-18T07:42:28.277Z,4.60
2019-02-18T07:43:32.016Z,4.73
2019-02-18T07:44:35.738Z,4.81
2019-02-18T07:45:39.376Z,4.88
2019-02-18T07:46:43.053Z,5.00
2019-02-18T07:47:46.686Z,5.10
2019-02-18T07:48:50.318Z,5.20
2019-02-18T07:49:53.963Z,5.34
2019-02-18T07:50:57.948Z,5.40
2019-02-18T07:52:01.635Z,5.38
2019-02-18T07:53:05.625Z,5.31
2019-02-18T07:54:10.354Z,5.08
2019-02-18T07:55:14.163Z,5.03
2019-02-18T07:56:23.475Z,5.19
2019-02-18T07:57:28.587Z,5.29
2019-02-18T07:58:32.640Z,5.21
2019-02-18T07:59:36.310Z,5.15
2019-02-18T08:00:39.949Z,5.10
2019-02-18T08:01:43.601Z,5.01
2019-02-18T08:02:47.250Z,5.11
2019-02-18T08:03:50.980Z,5.17
2019-02-18T08:04:54.669Z,5.28
2019-02-18T08:05:58.305Z,5.61
2019-02-18T08:07:01.961Z,5.84
2019-02-18T08:08:05.634Z,6.05
2019-02-18T08:09:09.238Z,6.29
2019-02-18T08:10:12.882Z,6.45
2019-02-18T08:11:16.505Z,6.56
2019-02-18T08:12:20.278Z,6.53
2019-02-18T08:13:23.931Z,6.52
2019-02-18T08:14:27.627Z,6.54
2019-02-18T08:15:31.323Z,6.77
2019-02-18T08:16:34.974Z,7.12
2019-02-18T08:17:38.976Z,7.41
2019-02-18T08:18:42.612Z,7.55
2019-02-18T08:19:46.315Z,7.75
2019-02-18T08:20:50.021Z,7.91
2019-02-18T08:21:53.732Z,8.24
2019-02-18T08:22:57.394Z,8.44
2019-02-18T08:24:01.026Z,8.66
2019-02-18T08:25:06.714Z,8.70
2019-02-18T08:26:10.668Z,8.95
2019-02-18T08:27:14.320Z,9.15
2019-02-18T08:28:17.929Z,9.31
2019-02-18T08:29:21.571Z,9.30
2019-02-18T08:30:25.216Z,9.16
2019-02-18T08:31:28.849Z,9.11
2019-02-18T08:32:32.479Z,9.07
2019-02-18T08:33:36.153Z,9.31
2019-02-18T08:34:39.823Z,9.52
2019-02-18T08:35:43.392Z,9.87
2019-02-18T08:36:47.033Z,10.13
2019-02-18T08:37:50.665Z,10.38
2019-02-18T08:38:54.281Z,10.50
2019-02-18T08:39:57.929Z,10.51
2019-02-18T08:41:01.556Z,10.87
2019-02-18T08:42:05.203Z,11.17
2019-02-18T08:43:08.849Z,11.24
2019-02-18T08:44:12.510Z,11.06
2019-02-18T08:45:16.253Z,11.00
2019-02-18T08:46:19.890Z,11.08
2019-02-18T08:47:23.536Z,11.19
2019-02-18T08:48:27.180Z,11.03
2019-02-18T08:49:30.922Z,10.79
2019-02-18T08:50:34.570Z,10.82
2019-02-18T08:51:38.131Z,11.26
2019-02-18T08:52:41.765Z,11.26
2019-02-18T08:53:47.775Z,11.41
2019-02-18T08:54:56.655Z,11.41
2019-02-18T08:55:56.206Z,11.72
2019-02-18T08:57:00.270Z,11.79
2019-02-18T08:58:03.922Z,11.79
2019-02-18T08:59:07.562Z,12.00
2019-02-18T09:00:14.137Z,12.25
2019-02-18T09:01:18.084Z,12.25
2019-02-18T09:02:21.650Z,12.49
2019-02-18T09:03:25.303Z,12.56
2019-02-18T09:04:28.941Z,12.56
2019-02-18T09:05:32.622Z,12.68
2019-02-18T09:06:36.432Z,12.88
2019-02-18T09:07:40.075Z,13.04
2019-02-18T09:08:43.711Z,12.88
2019-02-18T09:09:47.359Z,12.99
2019-02-18T09:10:51.028Z,12.99
2019-02-18T09:11:54.673Z,13.53
2019-02-18T09:12:58.321Z,13.34
2019-02-18T09:14:01.958Z,13.24
2019-02-18T09:15:07.495Z,13.67
2019-02-18T09:16:11.185Z,13.67
2019-02-18T09:17:14.891Z,14.20
2019-02-18T09:18:18.543Z,14.57
2019-02-18T09:19:22.811Z,14.96
2019-02-18T09:20:26.453Z,14.90
2019-02-18T09:21:31.861Z,15.15
2019-02-18T09:22:55.242Z,15.50
2019-02-18T09:24:00.726Z,15.58
2019-02-18T09:25:07.804Z,15.58
2019-02-18T09:26:13.069Z,16.19
2019-02-18T09:27:16.797Z,16.19
2019-02-18T09:28:20.466Z,16.45
2019-02-18T09:29:24.189Z,16.43
2019-02-18T09:30:29.461Z,16.43
2019-02-18T09:31:34.826Z,16.54
2019-02-18T09:32:38.478Z,17.04
2019-02-18T09:33:42.541Z,17.25
2019-02-18T09:34:46.184Z,17.05
2019-02-18T09:35:49.826Z,17.15
2019-02-18T09:36:56.241Z,17.28
2019-02-18T09:38:00.053Z,17.43
2019-02-18T09:39:04.805Z,17.67
2019-02-18T09:40:10.704Z,18.02
2019-02-18T09:41:14.335Z,18.30
2019-02-18T09:42:17.972Z,18.60
2019-02-18T09:43:21.614Z,18.76
2019-02-18T09:44:25.293Z,18.70
2019-02-18T09:45:28.937Z,18.70
2019-02-18T09:46:32.646Z,18.19
2019-02-18T09:47:36.282Z,17.98
2019-02-18T09:48:39.909Z,18.47
2019-02-18T09:49:43.671Z,18.59
2019-02-18T09:50:47.311Z,18.68
2019-02-18T09:51:50.955Z,18.97
2019-02-18T09:52:54.599Z,19.18
2019-02-18T09:53:58.247Z,19.40
2019-02-18T09:55:01.861Z,19.67
2019-02-18T09:56:05.611Z,19.71
2019-02-18T09:57:09.315Z,19.95
2019-02-18T09:58:12.977Z,20.25
2019-02-18T09:59:16.608Z,20.27
2019-02-18T10:00:20.291Z,20.10
2019-02-18T10:01:23.918Z,20.17
2019-02-18T10:02:27.490Z,20.39
2019-02-18T10:03:31.922Z,20.33
2019-02-18T10:04:36.424Z,20.26
2019-02-18T10:05:40.101Z,20.61
2019-02-18T10:06:43.749Z,20.79
2019-02-18T10:07:47.389Z,20.75
2019-02-18T10:08:53.632Z,20.98
2019-02-18T10:09:57.272Z,20.98
2019-02-18T10:11:00.977Z,21.05
2019-02-18T10:12:04.692Z,21.22
2019-02-18T10:13:13.972Z,21.44
2019-02-18T10:14:17.727Z,21.51
2019-02-18T10:15:21.381Z,21.75
2019-02-18T10:16:25.012Z,21.95
2019-02-18T10:17:28.659Z,21.78
2019-02-18T10:18:32.306Z,22.05
2019-02-18T10:19:36.109Z,22.27
2019-02-18T10:20:40.212Z,22.47
2019-02-18T10:21:44.219Z,22.58
2019-02-18T10:22:47.861Z,22.83
2019-02-18T10:23:51.422Z,23.29
2019-02-18T10:24:55.074Z,23.44
2019-02-18T10:25:58.713Z,23.23
2019-02-18T10:27:02.838Z,22.71
2019-02-18T10:28:06.459Z,23.08
2019-02-18T10:29:10.027Z,23.80
2019-02-18T10:30:13.674Z,24.16
2019-02-18T10:31:17.402Z,24.07
2019-02-18T10:32:21.071Z,24.30
2019-02-18T10:33:24.713Z,24.64
2019-02-18T10:34:28.598Z,24.58
2019-02-18T10:35:32.235Z,24.66
2019-02-18T10:36:35.971Z,24.84
2019-02-18T10:37:39.691Z,24.99
2019-02-18T10:38:43.335Z,25.37
2019-02-18T10:39:46.974Z,25.70
2019-02-18T10:40:50.618Z,25.89
2019-02-18T10:41:54.191Z,25.89
2019-02-18T10:42:57.863Z,25.43
2019-02-18T10:44:01.519Z,25.00
2019-02-18T10:45:07.780Z,24.82
2019-02-18T10:46:11.434Z,24.93
2019-02-18T10:47:15.069Z,25.12
2019-02-18T10:48:18.737Z,25.40
2019-02-18T10:49:23.278Z,25.65
2019-02-18T10:50:27.327Z,25.91
2019-02-18T10:51:31.350Z,26.21
2019-02-18T10:52:35.066Z,25.68
2019-02-18T10:53:38.751Z,25.67
2019-02-18T10:54:42.393Z,25.80
2019-02-18T10:55:46.034Z,25.44
2019-02-18T10:56:49.680Z,25.79
2019-02-18T10:57:53.312Z,26.50
2019-02-18T10:58:56.914Z,26.92
2019-02-18T11:00:00.555Z,26.75
2019-02-18T11:01:04.473Z,26.49
2019-02-18T11:02:08.674Z,26.62
2019-02-18T11:03:12.393Z,27.05
2019-02-18T11:04:16.241Z,26.96
2019-02-18T11:05:20.655Z,26.52
2019-02-18T11:06:24.753Z,26.45
2019-02-18T11:07:28.392Z,27.04
2019-02-18T11:08:32.042Z,27.27
2019-02-18T11:09:35.817Z,27.29
2019-02-18T11:10:39.474Z,27.34
2019-02-18T11:11:43.190Z,27.82
2019-02-18T11:12:47.682Z,28.21
2019-02-18T11:13:51.473Z,28.16
2019-02-18T11:14:55.201Z,28.57
2019-02-18T11:15:58.776Z,28.64
2019-02-18T11:17:02.409Z,29.03
2019-02-18T11:18:06.126Z,28.77
2019-02-18T11:19:09.767Z,28.71
2019-02-18T11:20:14.085Z,28.59
2019-02-18T11:21:17.992Z,28.53
2019-02-18T11:22:21.631Z,28.43
2019-02-18T11:23:25.203Z,28.20
2019-02-18T11:24:28.839Z,28.20
2019-02-18T11:25:32.508Z,28.26
2019-02-18T11:26:37.387Z,28.91
2019-02-18T11:27:41.039Z,29.22
2019-02-18T11:28:44.680Z,29.84
2019-02-18T11:29:48.322Z,29.79
2019-02-18T11:30:52.011Z,30.03
2019-02-18T11:31:56.091Z,29.89
2019-02-18T11:32:59.731Z,29.57
2019-02-18T11:34:03.406Z,29.20
2019-02-18T11:35:07.748Z,29.71
2019-02-18T11:36:11.422Z,30.30
2019-02-18T11:37:15.059Z,30.82
2019-02-18T11:38:18.703Z,31.18
2019-02-18T11:39:22.358Z,31.22
2019-02-18T11:40:25.947Z,31.00
2019-02-18T11:41:29.890Z,30.91
2019-02-18T11:42:34.218Z,30.88
2019-02-18T11:43:37.859Z,31.20
2019-02-18T11:44:41.569Z,30.52
2019-02-18T11:45:45.206Z,30.78
2019-02-18T11:46:48.865Z,30.40
2019-02-18T11:47:52.511Z,30.24
2019-02-18T11:48:56.148Z,30.70
2019-02-18T11:49:59.783Z,30.49
2019-02-18T11:51:03.432Z,30.55
2019-02-18T11:52:07.116Z,30.61
2019-02-18T11:53:11.691Z,30.34
2019-02-18T11:54:15.325Z,30.26
2019-02-18T11:55:18.958Z,30.65
2019-02-18T11:56:22.594Z,30.07
2019-02-18T11:57:26.642Z,29.80
2019-02-18T11:58:30.215Z,30.22
2019-02-18T11:59:33.859Z,30.46
2019-02-18T12:00:37.568Z,30.54
2019-02-18T12:01:41.207Z,30.70
2019-02-18T12:02:44.881Z,30.67
2019-02-18T12:03:48.581Z,30.19
2019-02-18T12:04:52.161Z,30.16
2019-02-18T12:05:55.795Z,30.24
2019-02-18T12:06:59.444Z,30.16
2019-02-18T12:08:03.193Z,30.33
2019-02-18T12:09:07.821Z,30.44
2019-02-18T12:10:12.556Z,30.42
2019-02-18T12:11:16.485Z,30.74
2019-02-18T12:12:20.172Z,30.57
2019-02-18T12:13:23.955Z,30.68
2019-02-18T12:14:27.706Z,30.50
2019-02-18T12:15:31.412Z,30.22
2019-02-18T12:16:35.050Z,30.39
2019-02-18T12:17:38.688Z,30.95
2019-02-18T12:18:42.373Z,31.39
2019-02-18T12:19:46.343Z,31.84
2019-02-18T12:20:49.991Z,31.72
2019-02-18T12:21:53.631Z,31.41
2019-02-18T12:22:57.273Z,31.10
2019-02-18T12:24:01.184Z,30.77
2019-02-18T12:25:06.220Z,30.77
2019-02-18T12:26:10.928Z,30.76
2019-02-18T12:27:14.559Z,30.71
2019-02-18T12:28:18.219Z,30.46
2019-02-18T12:29:26.138Z,30.17
2019-02-18T12:30:27.306Z,29.95
2019-02-18T12:31:30.941Z,30.20
2019-02-18T12:32:35.503Z,30.43
2019-02-18T12:33:39.161Z,30.88
2019-02-18T12:34:42.814Z,31.27
2019-02-18T12:35:46.534Z,31.39
2019-02-18T12:36:50.317Z,31.78
2019-02-18T12:37:55.530Z,31.46
2019-02-18T12:38:59.227Z,31.39
2019-02-18T12:40:03.881Z,31.42
2019-02-18T12:41:07.872Z,31.28
2019-02-18T12:42:11.516Z,31.08
2019-02-18T12:43:17.027Z,31.13
2019-02-18T12:44:20.672Z,30.97
2019-02-18T12:45:24.416Z,30.90
2019-02-18T12:46:28.051Z,30.81
2019-02-18T12:47:31.694Z,30.90
2019-02-18T12:48:35.405Z,30.63
2019-02-18T12:49:39.046Z,30.71
2019-02-18T12:50:42.784Z,30.76
2019-02-18T12:51:46.491Z,30.72
2019-02-18T12:52:50.142Z,30.57
2019-02-18T12:53:53.947Z,30.50
2019-02-18T12:55:00.292Z,30.42
2019-02-18T12:56:04.300Z,30.01
2019-02-18T12:57:07.929Z,30.13
2019-02-18T12:58:11.569Z,30.42
2019-02-18T12:59:15.205Z,30.60
2019-02-18T13:00:18.857Z,30.71
2019-02-18T13:01:22.882Z,30.69
2019-02-18T13:02:26.671Z,30.87
2019-02-18T13:03:30.372Z,31.11
2019-02-18T13:04:34.010Z,30.86
2019-02-18T13:05:37.645Z,30.51
2019-02-18T13:06:41.585Z,30.49
2019-02-18T13:07:45.493Z,29.80
2019-02-18T13:08:49.123Z,29.63
2019-02-18T13:09:52.684Z,29.91
2019-02-18T13:10:56.320Z,30.02
2019-02-18T13:11:59.998Z,30.20
2019-02-18T13:13:03.624Z,30.20
2019-02-18T13:14:07.260Z,30.19
2019-02-18T13:15:15.417Z,30.08
2019-02-18T13:16:19.127Z,29.94
2019-02-18T13:17:22.732Z,29.38
2019-02-18T13:18:26.432Z,29.43
2019-02-18T13:19:29.995Z,29.51
2019-02-18T13:20:33.917Z,29.38
2019-02-18T13:21:37.549Z,29.35
2019-02-18T13:22:41.295Z,29.34
2019-02-18T13:23:44.923Z,29.39
2019-02-18T13:24:48.937Z,29.21
2019-02-18T13:25:52.705Z,28.57
2019-02-18T13:26:56.342Z,28.49
2019-02-18T13:28:08.172Z,28.91
2019-02-18T13:29:05.367Z,29.17
2019-02-18T13:30:17.276Z,29.01
2019-02-18T13:31:20.909Z,28.95
2019-02-18T13:32:24.868Z,28.90
2019-02-18T13:33:28.538Z,28.31
2019-02-18T13:34:32.173Z,28.03
2019-02-18T13:35:36.186Z,28.03
2019-02-18T13:36:39.819Z,27.96
2019-02-18T13:37:43.456Z,28.01
2019-02-18T13:38:47.133Z,28.30
2019-02-18T13:39:50.769Z,28.27
2019-02-18T13:40:54.782Z,28.35
2019-02-18T13:41:58.426Z,28.13
2019-02-18T13:43:02.064Z,27.39
2019-02-18T13:44:05.798Z,27.41
2019-02-18T13:45:09.735Z,27.41
2019-02-18T13:46:13.369Z,27.45
2019-02-18T13:47:17.038Z,27.21
2019-02-18T13:48:21.244Z,27.10
2019-02-18T13:49:25.204Z,27.21
2019-02-18T13:50:29.252Z,26.98
2019-02-18T13:51:32.822Z,26.92
2019-02-18T13:52:36.392Z,26.86
2019-02-18T13:53:40.028Z,26.84
2019-02-18T13:54:43.674Z,26.48
2019-02-18T13:55:47.693Z,26.22